CheckWX is a tool to help pilots better visualize weather data.  It is not intended as a substitute for an official pre-flight weather briefing.

04:03:09 UTC

PANC METAR
Ted Stevens Anchorage International Airport
Anchorage, Alaska, USA
Current

10 mins ago

PANC 220353Z 00000KT 2 1/2SM -SN BR BKN029 OVC060 M07/M10 A2950 RMK AO2 SLP994 P0001 T10721100
Observed
Jan-22 @ 03:53 UTC
Visibility
2 1/2 SM
Flight Rules
IFR
Conditions
Light Snow, Mist
Cloud Levels
  • Broken at 2,900' AGL
  • Overcast at 6,000' AGL
Temperature
-7°C / 19°F
Dewpoint
-10°C / 14°F
Humidity
79%
Altimeter
29.5" Hg
Pressure
999.02 hPa
Current Rain
0.01"
Previous

51 mins ago

PANC 220312Z 00000KT 1 1/2SM -SN BR BKN015 OVC025 M07/M10 A2950 RMK AO2 P0000 T10721100
Observed
Jan-22 @ 03:12 UTC
Visibility
1 1/2 SM
Flight Rules
IFR
Conditions
Light Snow, Mist
Cloud Levels
  • Broken at 1,500' AGL
  • Overcast at 2,500' AGL
Temperature
-7°C / 19°F
Dewpoint
-10°C / 14°F
Humidity
79%
Altimeter
29.5" Hg
Pressure
999.02 hPa
Current Rain
0.01"
Previous

1 hour ago

PANC 220253Z 00000KT 3/4SM R07R/P6000FT SN BR VV019 M07/M10 A2949 RMK AO2 SLP990 P0003 60006 T10721100 51002
Observed
Jan-22 @ 02:53 UTC
Visibility
3/4 SM
Flight Rules
LIFR
Conditions
Snow, Mist
Cloud Levels
  • Vertical visibility at 1,900' AGL
Temperature
-7°C / 19°F
Dewpoint
-10°C / 14°F
Humidity
79%
Altimeter
29.49" Hg
Pressure
998.62 hPa
Current Rain
0.03"